No particular awareness of the weather is required.    There are no Weather-warnings


Meteo18 Weather Cam more information Meteo18 Weather Cam


Thunder radar more information blitzortung!


Rain radar more information rain snow radar


Visit our other weather sites:

Template documentation
and downloads

And another site



Weather Underground History page Text

Daily Summary for July 4, 2017 Units:  English    Metric   Both
« Previous Day
Next Day »
Daily Weekly Monthly Yearly Custom
  High: Low: Average:
Temperature: 86.2 °F 53.2 °F 70.7 °F
Dew Point: 61 °F 51.8 °F 56.8 °F
Humidity: 96 % 38 % 66 %
Wind Speed: 7 mph 0 mph 1.2 mph
Wind Gust: 12 mph - -
Wind:- - ESE
Pressure: 30.2 in 30.1 in -
Precipitation: 0 in    
Historical Graphs
 
 
Tabular Data for July 4, 2017
Time Temperature Dew Point Pressure Wind Wind Speed Wind Gust Humidity Rainfall Rate (Hourly)
00:02 58.6 °F 55.8 °F 30.2 in Calm     90 % 0 in
00:12 59 °F 56.1 °F 30.2 in Calm     90 % 0 in
00:17 59.2 °F 56.3 °F 30.2 in Calm     90 % 0 in
00:22 59 °F 56.1 °F 30.2 in Calm     90 % 0 in
00:32 58.5 °F 55.6 °F 30.2 in Calm     90 % 0 in
00:42 58.3 °F 55.6 °F 30.2 in Calm     91 % 0 in
00:47 58.3 °F 55.6 °F 30.2 in Calm     91 % 0 in
00:52 58.3 °F 55.6 °F 30.2 in Calm     91 % 0 in
00:57 58.3 °F 55.6 °F 30.2 in Calm     91 % 0 in
01:02 57.9 °F 55.2 °F 30.2 in Calm     91 % 0 in
01:07 57.9 °F 55.6 °F 30.2 in Calm     92 % 0 in
01:12 57.7 °F 55.4 °F 30.2 in Calm     92 % 0 in
01:17 57.6 °F 55.2 °F 30.2 in Calm     92 % 0 in
01:22 57.6 °F 55.2 °F 30.2 in Calm     92 % 0 in
01:27 57.4 °F 55 °F 30.2 in Calm     92 % 0 in
01:32 57 °F 54.7 °F 30.2 in Calm     92 % 0 in
01:37 56.8 °F 54.9 °F 30.2 in Calm     93 % 0 in
01:42 56.7 °F 54.7 °F 30.2 in Calm     93 % 0 in
01:47 56.5 °F 54.5 °F 30.2 in Calm     93 % 0 in
01:52 56.5 °F 54.5 °F 30.2 in Calm     93 % 0 in
01:57 56.5 °F 54.9 °F 30.2 in Calm     94 % 0 in
02:02 56.5 °F 54.9 °F 30.2 in Calm     94 % 0 in
02:07 56.5 °F 54.9 °F 30.2 in Calm     94 % 0 in
02:12 56.3 °F 54.3 °F 30.2 in Calm     93 % 0 in
02:17 56.1 °F 54.1 °F 30.2 in Calm     93 % 0 in
02:22 55.9 °F 54 °F 30.2 in Calm     93 % 0 in
02:27 55.9 °F 54.3 °F 30.2 in Calm     94 % 0 in
02:32 55.8 °F 54.1 °F 30.2 in Calm     94 % 0 in
02:37 55.8 °F 54.1 °F 30.2 in Calm     94 % 0 in
02:42 55.8 °F 54.1 °F 30.2 in Calm     94 % 0 in
02:47 55.8 °F 54.1 °F 30.2 in Calm     94 % 0 in
02:52 55.8 °F 54.1 °F 30.2 in Calm     94 % 0 in
02:57 55.8 °F 54.1 °F 30.2 in Calm     94 % 0 in
03:02 55.6 °F 54 °F 30.2 in Calm     94 % 0 in
03:12 55.2 °F 53.6 °F 30.2 in Calm     94 % 0 in
03:17 55 °F 53.4 °F 30.2 in Calm     94 % 0 in
03:22 55 °F 53.6 °F 30.2 in Calm     95 % 0 in
03:32 55 °F 53.6 °F 30.2 in Calm     95 % 0 in
03:37 55 °F 53.6 °F 30.2 in Calm     95 % 0 in
03:42 54.9 °F 53.4 °F 30.2 in Calm     95 % 0 in
03:47 54.9 °F 53.4 °F 30.2 in Calm     95 % 0 in
03:52 55 °F 53.6 °F 30.2 in Calm     95 % 0 in
03:57 55 °F 53.6 °F 30.2 in NNW 1 mph   95 % 0 in
04:02 54.9 °F 53.4 °F 30.2 in North 1 mph 2 mph 95 % 0 in
04:12 54.5 °F 53.1 °F 30.2 in NNE 1 mph 2 mph 95 % 0 in
04:17 54.7 °F 53.2 °F 30.2 in North 1 mph 2 mph 95 % 0 in
04:22 54.5 °F 53.1 °F 30.2 in Calm   2 mph 95 % 0 in
04:27 54.7 °F 53.2 °F 30.2 in Calm   2 mph 95 % 0 in
04:32 54.7 °F 53.2 °F 30.2 in Calm   2 mph 95 % 0 in
04:37 54.5 °F 53.1 °F 30.2 in Calm   1 mph 95 % 0 in
04:42 54.5 °F 53.1 °F 30.2 in Calm   2 mph 95 % 0 in
04:47 54.1 °F 52.7 °F 30.2 in Calm   2 mph 95 % 0 in
04:52 54.1 °F 52.7 °F 30.2 in Calm   1 mph 95 % 0 in
04:57 54 °F 52.5 °F 30.2 in Calm     95 % 0 in
05:02 54 °F 52.5 °F 30.2 in Calm     95 % 0 in
05:12 54 °F 52.5 °F 30.2 in Calm     95 % 0 in
05:17 54 °F 52.9 °F 30.2 in Calm     96 % 0 in
05:22 54.3 °F 53.2 °F 30.2 in North 1 mph 2 mph 96 % 0 in
05:32 54.1 °F 52.7 °F 30.2 in Calm   2 mph 95 % 0 in
05:37 53.8 °F 52.3 °F 30.2 in Calm   1 mph 95 % 0 in
05:42 54 °F 52.5 °F 30.2 in Calm   1 mph 95 % 0 in
05:47 53.8 °F 52.3 °F 30.2 in Calm     95 % 0 in
05:52 53.6 °F 52.2 °F 30.2 in Calm     95 % 0 in
05:57 53.4 °F 52 °F 30.2 in Calm   1 mph 95 % 0 in
06:02 53.4 °F 52 °F 30.2 in Calm   1 mph 95 % 0 in
06:12 53.2 °F 51.8 °F 30.2 in Calm     95 % 0 in
06:17 53.4 °F 52 °F 30.2 in Calm     95 % 0 in
06:22 53.4 °F 52.3 °F 30.2 in Calm   2 mph 96 % 0 in
06:27 53.4 °F 52 °F 30.2 in Calm   2 mph 95 % 0 in
06:32 53.4 °F 52 °F 30.2 in Calm   2 mph 95 % 0 in
06:42 54.1 °F 53.1 °F 30.2 in Calm     96 % 0 in
06:52 55.2 °F 53.8 °F 30.2 in Calm     95 % 0 in
07:02 56.3 °F 54.9 °F 30.2 in Calm     95 % 0 in
07:07 56.5 °F 54.5 °F 30.2 in Calm     93 % 0 in
07:12 56.8 °F 55.2 °F 30.2 in Calm     94 % 0 in
07:17 57.6 °F 55.8 °F 30.2 in Calm     94 % 0 in
07:22 58.8 °F 57.4 °F 30.2 in Calm     95 % 0 in
07:27 59.5 °F 57.6 °F 30.2 in Calm     93 % 0 in
07:32 59.9 °F 57.6 °F 30.2 in Calm     92 % 0 in
07:42 61.3 °F 58.6 °F 30.2 in Calm     91 % 0 in
07:47 61.3 °F 57.4 °F 30.2 in Calm     87 % 0 in
07:52 61.2 °F 57.6 °F 30.2 in Calm     88 % 0 in
07:57 61.9 °F 57.9 °F 30.2 in Calm     87 % 0 in
08:02 62.1 °F 58.1 °F 30.2 in Calm     87 % 0 in
08:07 63 °F 59 °F 30.2 in Calm     87 % 0 in
08:12 63.7 °F 59.4 °F 30.2 in Calm     86 % 0 in
08:17 64.8 °F 59.9 °F 30.2 in Calm     84 % 0 in
08:22 65.8 °F 60.3 °F 30.2 in Calm     82 % 0 in
08:32 65.7 °F 59.7 °F 30.2 in Calm     81 % 0 in
08:37 64.9 °F 58.6 °F 30.2 in Calm   1 mph 80 % 0 in
08:42 64.9 °F 59.7 °F 30.2 in West 1 mph 1 mph 83 % 0 in
08:47 65.8 °F 59.9 °F 30.2 in Calm   1 mph 81 % 0 in
08:52 66.7 °F 60.4 °F 30.2 in Calm   1 mph 80 % 0 in
08:57 67.5 °F 59.5 °F 30.2 in Calm   2 mph 76 % 0 in
09:02 67.6 °F 59.7 °F 30.2 in Calm   2 mph 76 % 0 in
09:12 69.1 °F 60.1 °F 30.2 in SSE 1 mph 2 mph 73 % 0 in
09:17 68.4 °F 59 °F 30.2 in South 1 mph 3 mph 72 % 0 in
09:22 68.5 °F 59.5 °F 30.2 in Calm   3 mph 73 % 0 in
09:32 69.4 °F 59.5 °F 30.2 in Calm   3 mph 71 % 0 in
09:37 69.6 °F 59.4 °F 30.2 in Calm   3 mph 70 % 0 in
09:42 70.2 °F 59.2 °F 30.2 in ESE 1 mph 3 mph 68 % 0 in
09:47 70.3 °F 59.7 °F 30.2 in ESE 1 mph 4 mph 69 % 0 in
09:52 70.3 °F 59.7 °F 30.2 in ENE 3 mph 4 mph 69 % 0 in
09:57 70.5 °F 59.9 °F 30.2 in SSW 1 mph 4 mph 69 % 0 in
10:02 71.4 °F 60.3 °F 30.2 in SSW 3 mph 4 mph 68 % 0 in
10:07 71.4 °F 60.8 °F 30.2 in East 3 mph 4 mph 69 % 0 in
10:12 71.4 °F 59.9 °F 30.2 in WSW 1 mph 5 mph 67 % 0 in
10:22 72.1 °F 60.6 °F 30.2 in ESE 1 mph 5 mph 67 % 0 in
10:27 72.7 °F 60.6 °F 30.2 in Calm   5 mph 66 % 0 in
10:32 73.4 °F 61 °F 30.2 in NNE 2 mph 5 mph 65 % 0 in
10:37 73.2 °F 60.3 °F 30.2 in East 3 mph 4 mph 64 % 0 in
10:42 73.2 °F 60.3 °F 30.2 in ESE 4 mph 5 mph 64 % 0 in
10:47 73.2 °F 60.3 °F 30.2 in ENE 1 mph 6 mph 64 % 0 in
10:52 73.4 °F 60.4 °F 30.2 in ENE 2 mph 6 mph 64 % 0 in
10:57 73.4 °F 60.4 °F 30.2 in Calm   5 mph 64 % 0 in
11:02 73.8 °F 59.5 °F 30.2 in ENE 5 mph 5 mph 61 % 0 in
11:07 73.8 °F 59.5 °F 30.2 in ESE 1 mph 8 mph 61 % 0 in
11:12 73.9 °F 58.3 °F 30.2 in ENE 4 mph 8 mph 58 % 0 in
11:17 74.1 °F 58.5 °F 30.2 in Calm   8 mph 58 % 0 in
11:22 74.7 °F 58.8 °F 30.2 in NE 2 mph 8 mph 58 % 0 in
11:27 74.8 °F 58.1 °F 30.2 in ENE 5 mph 8 mph 56 % 0 in
11:32 74.7 °F 56.5 °F 30.2 in Calm   7 mph 53 % 0 in
11:37 74.8 °F 57 °F 30.2 in WNW 1 mph 7 mph 54 % 0 in
11:42 75.7 °F 59 °F 30.2 in ESE 3 mph 5 mph 56 % 0 in
11:47 75.6 °F 57.2 °F 30.2 in SW 4 mph 5 mph 53 % 0 in
11:52 75.6 °F 58.3 °F 30.2 in West 3 mph 5 mph 55 % 0 in
11:57 75.7 °F 57.9 °F 30.2 in ESE 1 mph 5 mph 54 % 0 in
12:02 76.3 °F 59 °F 30.2 in SSW 3 mph 5 mph 55 % 0 in
12:07 76.8 °F 57.9 °F 30.2 in SW 2 mph 6 mph 52 % 0 in
12:12 76.5 °F 57.6 °F 30.2 in Calm   6 mph 52 % 0 in
12:17 77 °F 58.6 °F 30.2 in NNE 2 mph 5 mph 53 % 0 in
12:22 76.5 °F 58.6 °F 30.2 in West 1 mph 6 mph 54 % 0 in
12:27 76.6 °F 58.8 °F 30.2 in East 5 mph 6 mph 54 % 0 in
12:32 76.3 °F 57.9 °F 30.2 in NE 3 mph 6 mph 53 % 0 in
12:42 77.7 °F 59.2 °F 30.2 in SSW 3 mph 7 mph 53 % 0 in
12:47 78.1 °F 57.9 °F 30.2 in Calm   5 mph 50 % 0 in
12:52 78.6 °F 57.9 °F 30.2 in ESE 2 mph 5 mph 49 % 0 in
12:57 79.2 °F 59 °F 30.2 in SE 2 mph 4 mph 50 % 0 in
13:02 78.4 °F 57.7 °F 30.2 in SE 4 mph 5 mph 49 % 0 in
13:07 78.1 °F 57.4 °F 30.2 in WSW 3 mph 9 mph 49 % 0 in
13:12 77.7 °F 57 °F 30.2 in ENE 1 mph 9 mph 49 % 0 in
13:17 77.5 °F 56.8 °F 30.2 in ESE 7 mph 9 mph 49 % 0 in
13:22 78.6 °F 57.2 °F 30.2 in NE 2 mph 8 mph 48 % 0 in
13:27 78.6 °F 57.2 °F 30.2 in NE 3 mph 8 mph 48 % 0 in
13:32 79 °F 57 °F 30.2 in ESE 6 mph 8 mph 47 % 0 in
13:37 78.8 °F 56.3 °F 30.2 in ENE 5 mph 7 mph 46 % 0 in
13:42 78.6 °F 56.1 °F 30.2 in SSW 2 mph 7 mph 46 % 0 in
13:47 79.3 °F 54.9 °F 30.2 in NE 3 mph 7 mph 43 % 0 in
13:52 79.7 °F 54.5 °F 30.2 in Calm   7 mph 42 % 0 in
13:57 79.9 °F 56.7 °F 30.2 in SSW 2 mph 7 mph 45 % 0 in
14:02 79.9 °F 56.7 °F 30.2 in SSW 5 mph 7 mph 45 % 0 in
14:07 80.2 °F 57.6 °F 30.2 in SE 1 mph 7 mph 46 % 0 in
14:12 80.4 °F 56.5 °F 30.2 in South 3 mph 6 mph 44 % 0 in
14:17 80.1 °F 56.1 °F 30.2 in Calm   10 mph 44 % 0 in
14:22 80.4 °F 57.2 °F 30.2 in East 3 mph 10 mph 45 % 0 in
14:27 80.2 °F 56.3 °F 30.2 in ENE 5 mph 10 mph 44 % 0 in
14:32 80.4 °F 56.5 °F 30.2 in Calm   9 mph 44 % 0 in
14:37 80.8 °F 58.1 °F 30.2 in SSW 2 mph 9 mph 46 % 0 in
14:42 80.8 °F 55.6 °F 30.2 in ENE 5 mph 8 mph 42 % 0 in
14:47 80.1 °F 56.1 °F 30.1 in NW 2 mph 7 mph 44 % 0 in
14:52 80.4 °F 56.5 °F 30.1 in ENE 4 mph 9 mph 44 % 0 in
14:57 80.2 °F 56.3 °F 30.1 in North 4 mph 9 mph 44 % 0 in
15:02 80.8 °F 56.8 °F 30.1 in NE 1 mph 9 mph 44 % 0 in
15:12 81.9 °F 56.5 °F 30.1 in ENE 7 mph 7 mph 42 % 0 in
15:17 81.9 °F 57.2 °F 30.1 in NNE 4 mph 11 mph 43 % 0 in
15:22 81.1 °F 57.2 °F 30.1 in East 5 mph 12 mph 44 % 0 in
15:27 81.7 °F 57.6 °F 30.1 in East 6 mph 12 mph 44 % 0 in
15:32 81.7 °F 56.3 °F 30.1 in NE 4 mph 10 mph 42 % 0 in
15:37 81.7 °F 57 °F 30.1 in Calm   9 mph 43 % 0 in
15:42 82 °F 56.7 °F 30.1 in East 5 mph 7 mph 42 % 0 in
15:47 82 °F 57.4 °F 30.1 in ENE 5 mph 7 mph 43 % 0 in
15:52 82.2 °F 56.8 °F 30.1 in SSW 1 mph 8 mph 42 % 0 in
15:57 82.8 °F 57.9 °F 30.1 in South 1 mph 8 mph 43 % 0 in
16:02 82.9 °F 56.8 °F 30.1 in WNW 3 mph 9 mph 41 % 0 in
16:07 83.1 °F 56.3 °F 30.1 in SW 1 mph 9 mph 40 % 0 in
16:12 83.8 °F 57 °F 30.1 in Calm   9 mph 40 % 0 in
16:17 83.7 °F 57.4 °F 30.1 in ENE 3 mph 8 mph 41 % 0 in
16:22 83.5 °F 56.7 °F 30.1 in ENE 2 mph 9 mph 40 % 0 in
16:27 82.9 °F 56.8 °F 30.1 in East 7 mph 9 mph 41 % 0 in
16:32 82.8 °F 56.7 °F 30.1 in East 3 mph 10 mph 41 % 0 in
16:37 82.8 °F 56.7 °F 30.1 in ENE 4 mph 10 mph 41 % 0 in
16:42 83.7 °F 57.4 °F 30.1 in Calm   10 mph 41 % 0 in
16:47 83.8 °F 58.3 °F 30.1 in Calm   6 mph 42 % 0 in
16:52 84 °F 56.5 °F 30.1 in Calm   5 mph 39 % 0 in
16:57 83.8 °F 57 °F 30.1 in SE 2 mph 6 mph 40 % 0 in
17:02 83.8 °F 57.6 °F 30.1 in East 4 mph 6 mph 41 % 0 in
17:07 83.5 °F 57.4 °F 30.1 in NE 2 mph 8 mph 41 % 0 in
17:12 83.7 °F 56.8 °F 30.1 in SSE 1 mph 8 mph 40 % 0 in
17:17 84 °F 57.7 °F 30.1 in SSW 4 mph 8 mph 41 % 0 in
17:22 84.6 °F 59.5 °F 30.1 in SE 2 mph 7 mph 43 % 0 in
17:27 84.4 °F 57.4 °F 30.1 in ESE 6 mph 7 mph 40 % 0 in
17:32 83.7 °F 56.8 °F 30.1 in East 2 mph 10 mph 40 % 0 in
17:37 83.7 °F 57.4 °F 30.1 in East 6 mph 10 mph 41 % 0 in
17:42 83.8 °F 57.6 °F 30.1 in ENE 5 mph 10 mph 41 % 0 in
17:47 83.8 °F 57.6 °F 30.1 in East 4 mph 10 mph 41 % 0 in
17:52 84 °F 55.8 °F 30.1 in East 2 mph 9 mph 38 % 0 in
17:57 83.8 °F 56.3 °F 30.1 in ESE 2 mph 8 mph 39 % 0 in
18:02 84.6 °F 56.8 °F 30.1 in ENE 1 mph 6 mph 39 % 0 in
18:07 85.1 °F 57.4 °F 30.1 in ENE 4 mph 6 mph 39 % 0 in
18:12 84.7 °F 57.7 °F 30.1 in East 5 mph 9 mph 40 % 0 in
18:17 84 °F 57.7 °F 30.1 in NNE 3 mph 9 mph 41 % 0 in
18:22 84 °F 57.7 °F 30.1 in ENE 5 mph 9 mph 41 % 0 in
18:27 83.5 °F 57.4 °F 30.1 in ENE 3 mph 7 mph 41 % 0 in
18:32 83.7 °F 57.4 °F 30.1 in NE 2 mph 7 mph 41 % 0 in
18:42 84.6 °F 56.8 °F 30.1 in SW 2 mph 7 mph 39 % 0 in
18:47 85.1 °F 58.1 °F 30.1 in Calm   5 mph 40 % 0 in
18:52 86 °F 59.5 °F 30.1 in Calm   4 mph 41 % 0 in
18:57 86.2 °F 58.3 °F 30.1 in ENE 4 mph 4 mph 39 % 0 in
19:02 85.1 °F 58.1 °F 30.1 in Calm   6 mph 40 % 0 in
19:07 84.7 °F 57.7 °F 30.1 in NE 2 mph 6 mph 40 % 0 in
19:12 84 °F 58.5 °F 30.1 in NE 2 mph 6 mph 42 % 0 in
19:17 83.7 °F 57.4 °F 30.1 in East 2 mph 4 mph 41 % 0 in
19:22 83.5 °F 57.4 °F 30.1 in ENE 1 mph 4 mph 41 % 0 in
19:27 83.7 °F 57.4 °F 30.1 in Calm   6 mph 41 % 0 in
19:32 83.5 °F 56.7 °F 30.1 in ENE 5 mph 8 mph 40 % 0 in
19:37 83.1 °F 57.6 °F 30.1 in ESE 1 mph 8 mph 42 % 0 in
19:42 82.9 °F 57.6 °F 30.1 in East 3 mph 8 mph 42 % 0 in
19:47 82.8 °F 57.4 °F 30.1 in ENE 2 mph 5 mph 42 % 0 in
19:52 82.8 °F 57.4 °F 30.1 in ENE 2 mph 5 mph 42 % 0 in
19:57 82.6 °F 57.2 °F 30.1 in Calm   5 mph 42 % 0 in
20:02 82 °F 57.4 °F 30.1 in ENE 1 mph 4 mph 43 % 0 in
20:07 81.7 °F 58.3 °F 30.1 in East 1 mph 4 mph 45 % 0 in
20:12 81.7 °F 58.3 °F 30.1 in Calm   4 mph 45 % 0 in
20:17 81.9 °F 58.5 °F 30.1 in Calm   3 mph 45 % 0 in
20:22 82.2 °F 58.1 °F 30.1 in Calm   2 mph 44 % 0 in
20:27 82.4 °F 58.3 °F 30.1 in East 1 mph 3 mph 44 % 0 in
20:32 82.2 °F 58.1 °F 30.1 in ENE 2 mph 4 mph 44 % 0 in
20:37 82 °F 57.9 °F 30.1 in East 1 mph 4 mph 44 % 0 in
20:42 82 °F 57.9 °F 30.1 in Calm   4 mph 44 % 0 in
20:47 81.9 °F 57.7 °F 30.1 in Calm   3 mph 44 % 0 in
20:57 81.3 °F 58.6 °F 30.1 in East 1 mph 3 mph 46 % 0 in
21:02 81 °F 58.3 °F 30.1 in Calm   3 mph 46 % 0 in
21:07 80.4 °F 58.3 °F 30.1 in Calm   3 mph 47 % 0 in
21:12 80.1 °F 58.1 °F 30.1 in Calm   1 mph 47 % 0 in
21:17 79.9 °F 59 °F 30.1 in Calm     49 % 0 in
21:22 79.5 °F 59.7 °F 30.1 in Calm     51 % 0 in
21:32 79 °F 59.4 °F 30.1 in Calm     51 % 0 in
21:37 77.9 °F 59.4 °F 30.1 in Calm     53 % 0 in
21:42 76.5 °F 58.6 °F 30.1 in Calm     54 % 0 in
21:47 75.6 °F 59.2 °F 30.1 in Calm     57 % 0 in
21:52 74.7 °F 59.4 °F 30.1 in Calm     59 % 0 in
22:02 73.9 °F 58.3 °F 30.1 in Calm     58 % 0 in
22:07 73.6 °F 58.3 °F 30.1 in Calm     59 % 0 in
22:12 73 °F 58.8 °F 30.1 in Calm     61 % 0 in
22:17 72.7 °F 59.7 °F 30.1 in Calm     64 % 0 in
22:22 72.3 °F 59.9 °F 30.1 in Calm     65 % 0 in
22:27 71.8 °F 59.4 °F 30.1 in Calm     65 % 0 in
22:32 71.2 °F 59.4 °F 30.1 in Calm     66 % 0 in
22:42 70.3 °F 58.8 °F 30.1 in Calm     67 % 0 in
22:52 69.4 °F 59.2 °F 30.1 in Calm     70 % 0 in
22:57 68.9 °F 59.2 °F 30.1 in Calm     71 % 0 in
23:02 68.7 °F 58.5 °F 30.1 in Calm     70 % 0 in
23:07 69.1 °F 59.4 °F 30.1 in Calm     71 % 0 in
23:12 69.1 °F 59.4 °F 30.1 in Calm     71 % 0 in
23:17 68.9 °F 59.2 °F 30.1 in Calm     71 % 0 in
23:22 68.2 °F 58.8 °F 30.1 in Calm     72 % 0 in
23:27 68.5 °F 59.5 °F 30.1 in Calm     73 % 0 in
23:32 69.1 °F 59.7 °F 30.1 in Calm     72 % 0 in
23:37 69.3 °F 59.9 °F 30.1 in Calm     72 % 0 in
23:42 69.4 °F 59.5 °F 30.1 in Calm     71 % 0 in
23:47 69.4 °F 59.5 °F 30.1 in Calm     71 % 0 in
23:52 69.3 °F 59.5 °F 30.1 in Calm     71 % 0 in
23:57 68.9 °F 59.5 °F 30.1 in Calm     72 % 0 in
Meteo18
Compliments of Weather Underground - 4 mb

Script developed by  Jim McMurry - jmcmurry@mwt.net Adapted for the template by  Wim van der Kuil - Leuven-Template.eu

You find our weather info also at:

European Weather Network

Weather Underground

Equipment we use:

Weather-station
Davis Vue

Weather-program
Meteohub

Weather-server
Raspberry PI 2 B+

Provider
1 and 1

Davis Vue

Meteohub

Raspberry PI 2 B+

1 and 1